Time;durP1;ratioP1;P1;durP2;ratioP2;P2;SDS_P1;SDS_P2;PMS_P1;PMS_P2;Temp;Humidity;BMP_temperature;BMP_pressure;BME280_temperature;BME280_humidity;BME280_pressure;Samples;Min_cycle;Max_cycle;Signal;HPM_P1;HPM_P2
2021/12/18 00:00:35;;;;;;;22.20;14.70;;;11.00;99.90;;;;;;2614320;54;20438;-77
2021/12/18 00:03:01;;;;;;;24.87;15.73;;;10.70;99.90;;;;;;2613862;54;20421;-78
2021/12/18 00:05:27;;;;;;;22.93;14.37;;;10.40;99.90;;;;;;2614222;54;20427;-79
2021/12/18 00:07:54;;;;;;;23.07;16.10;;;10.50;99.90;;;;;;2613926;47;20426;-81
2021/12/18 00:13:01;;;;;;;24.70;16.70;;;10.80;99.90;;;;;;2612644;54;20492;-74
2021/12/18 00:15:29;;;;;;;24.77;15.07;;;11.00;99.90;;;;;;2610668;47;20488;-74
2021/12/18 00:17:55;;;;;;;25.50;15.30;;;10.90;99.90;;;;;;2614194;47;20419;-73
2021/12/18 00:20:23;;;;;;;29.53;16.73;;;11.00;99.90;;;;;;2614169;54;20411;-75
2021/12/18 00:22:49;;;;;;;25.03;14.30;;;10.90;99.90;;;;;;2614190;54;20399;-74
2021/12/18 00:25:15;;;;;;;29.67;17.43;;;11.00;99.90;;;;;;2613812;54;20519;-74
2021/12/18 00:27:41;;;;;;;27.30;15.17;;;11.00;99.90;;;;;;2614743;39;20769;-73
2021/12/18 00:30:09;;;;;;;24.30;14.63;;;11.00;99.90;;;;;;2613798;54;20194;-75
2021/12/18 00:32:34;;;;;;;22.83;15.30;;;11.10;99.90;;;;;;2613942;54;20465;-73
2021/12/18 00:35:00;;;;;;;29.00;16.57;;;11.10;99.90;;;;;;2614500;39;20942;-74
2021/12/18 00:37:26;;;;;;;32.83;16.53;;;10.70;99.90;;;;;;2613569;54;20176;-74
2021/12/18 00:39:56;;;;;;;28.87;16.67;;;10.70;99.90;;;;;;2614150;54;20158;-73
2021/12/18 00:45:01;;;;;;;29.30;16.80;;;10.90;99.90;;;;;;2613504;51;20420;-72
2021/12/18 00:47:27;;;;;;;28.63;16.87;;;10.70;99.90;;;;;;2614115;47;20432;-74
2021/12/18 00:49:53;;;;;;;22.37;14.40;;;10.80;99.90;;;;;;2614105;54;20990;-75
2021/12/18 00:52:20;;;;;;;26.10;16.43;;;11.00;99.90;;;;;;2614471;54;20435;-74
2021/12/18 00:54:46;;;;;;;25.23;17.50;;;11.20;99.90;;;;;;2614253;47;20431;-77
2021/12/18 00:57:12;;;;;;;27.47;16.33;;;11.10;99.90;;;;;;2614779;54;20419;-74
2021/12/18 00:59:38;;;;;;;26.47;17.30;;;11.00;99.90;;;;;;2613329;47;20514;-74
2021/12/18 01:02:04;;;;;;;29.87;17.70;;;11.20;99.90;;;;;;2614224;54;20701;-73
2021/12/18 01:04:30;;;;;;;27.90;17.87;;;11.30;99.90;;;;;;2613822;54;20444;-76
2021/12/18 01:06:56;;;;;;;33.03;19.80;;;11.20;99.90;;;;;;2614600;39;20819;-74
2021/12/18 01:09:34;;;;;;;26.07;17.53;;;11.10;99.90;;;;;;2613961;47;20431;-75
2021/12/18 01:11:59;;;;;;;27.93;18.73;;;10.60;99.90;;;;;;2615894;54;20687;-72
2021/12/18 01:22:51;;;;;;;36.17;19.90;;;10.40;99.90;;;;;;2615317;54;20166;-76
2021/12/18 01:25:10;;;;;;;27.67;18.17;;;10.20;99.90;;;;;;2614149;39;20845;-73
2021/12/18 01:27:36;;;;;;;34.40;18.93;;;10.30;99.90;;;;;;2614934;54;20418;-72
2021/12/18 01:30:05;;;;;;;36.63;19.70;;;10.30;99.90;;;;;;2613030;54;20392;-74
2021/12/18 01:32:31;;;;;;;36.80;18.50;;;10.20;99.90;;;;;;2616074;54;20451;-74
2021/12/18 01:34:57;;;;;;;43.40;20.13;;;10.40;99.90;;;;;;2614994;46;20408;-74
2021/12/18 01:37:24;;;;;;;35.63;19.37;;;10.20;99.90;;;;;;2614933;46;20175;-74
2021/12/18 01:39:53;;;;;;;25.33;17.33;;;10.30;99.90;;;;;;2614499;54;20155;-73
2021/12/18 01:42:58;;;;;;;29.10;17.10;;;10.60;99.90;;;;;;2615164;54;20460;-74
2021/12/18 01:53:34;;;;;;;22.90;14.03;;;10.00;99.90;;;;;;2614325;54;20411;-73
2021/12/18 01:56:00;;;;;;;22.80;13.60;;;10.00;99.90;;;;;;2614144;47;20434;-75
2021/12/18 01:58:27;;;;;;;25.53;14.43;;;10.20;99.90;;;;;;2613956;54;20419;-74
2021/12/18 02:00:58;;;;;;;24.90;13.87;;;10.10;99.90;;;;;;2614241;54;20165;-73
2021/12/18 02:03:24;;;;;;;19.67;12.57;;;10.00;99.90;;;;;;2613383;54;20392;-73
2021/12/18 02:05:51;;;;;;;17.67;12.47;;;10.20;99.90;;;;;;2612790;54;20570;-74
2021/12/18 02:08:26;;;;;;;19.90;12.70;;;10.40;99.90;;;;;;2614672;54;20422;-76
2021/12/18 02:11:08;;;;;;;22.60;12.57;;;10.70;99.90;;;;;;2613200;54;20450;-72
2021/12/18 02:13:59;;;;;;;23.87;14.30;;;10.90;99.90;;;;;;2614821;39;20934;-72
2021/12/18 02:21:53;;;;;;;19.17;13.10;;;10.90;99.90;;;;;;2613904;47;20439;-74
2021/12/18 02:24:22;;;;;;;18.30;12.30;;;11.10;99.90;;;;;;2614501;54;20430;-73
2021/12/18 02:26:48;;;;;;;24.67;14.93;;;11.10;99.90;;;;;;2614597;54;20451;-73
2021/12/18 02:29:15;;;;;;;22.07;14.40;;;11.00;99.90;;;;;;2615361;54;20420;-74
2021/12/18 02:31:43;;;;;;;20.37;11.80;;;10.40;99.90;;;;;;2615032;54;20443;-74
2021/12/18 02:34:16;;;;;;;24.63;13.87;;;10.80;99.90;;;;;;2613919;54;20444;-74
2021/12/18 02:36:46;;;;;;;24.03;14.63;;;11.20;99.90;;;;;;2615186;47;20460;-73
2021/12/18 02:42:10;;;;;;;23.30;13.80;;;11.10;99.90;;;;;;2614638;54;20951;-73
2021/12/18 02:44:39;;;;;;;21.13;11.93;;;11.30;99.90;;;;;;2615326;54;20426;-73
2021/12/18 02:47:06;;;;;;;23.97;13.70;;;11.30;99.90;;;;;;2615507;54;20427;-74
2021/12/18 02:49:32;;;;;;;25.40;14.07;;;11.00;99.90;;;;;;2615664;54;20518;-74
2021/12/18 02:51:58;;;;;;;22.77;13.87;;;10.80;99.90;;;;;;2614870;54;20423;-72
2021/12/18 02:54:26;;;;;;;21.20;13.93;;;10.90;99.90;;;;;;2614768;54;20460;-73
2021/12/18 02:56:52;;;;;;;21.43;13.00;;;11.00;99.90;;;;;;2613651;49;20412;-74
2021/12/18 02:59:18;;;;;;;25.10;13.27;;;11.00;99.90;;;;;;2614260;47;20430;-74
2021/12/18 03:01:44;;;;;;;21.13;12.20;;;11.10;99.90;;;;;;2614247;54;20431;-74
2021/12/18 03:04:18;;;;;;;28.60;15.70;;;11.10;99.90;;;;;;2614496;54;20502;-73
2021/12/18 03:06:47;;;;;;;32.03;15.40;;;11.20;99.90;;;;;;2614829;54;20443;-72
2021/12/18 03:09:42;;;;;;;22.13;13.00;;;10.80;99.90;;;;;;2613979;47;20439;-75
2021/12/18 03:25:28;;;;;;;33.60;15.43;;;10.90;99.90;;;;;;2612969;47;20407;-74
2021/12/18 03:27:55;;;;;;;27.77;14.33;;;11.20;99.90;;;;;;2614382;47;20167;-73
2021/12/18 03:30:21;;;;;;;26.00;14.97;;;11.30;99.90;;;;;;2615311;31;20888;-74
2021/12/18 03:32:48;;;;;;;23.23;13.63;;;11.30;99.90;;;;;;2615181;54;20427;-74
2021/12/18 03:35:15;;;;;;;18.13;11.03;;;11.10;99.90;;;;;;2614953;54;20418;-73
2021/12/18 03:37:41;;;;;;;25.93;13.60;;;11.20;99.90;;;;;;2615683;54;20386;-75
2021/12/18 03:40:11;;;;;;;21.93;11.97;;;11.30;99.90;;;;;;2613228;54;20419;-74
2021/12/18 03:42:37;;;;;;;21.57;12.27;;;11.30;99.90;;;;;;2615320;54;20418;-74
2021/12/18 03:45:05;;;;;;;21.50;13.20;;;11.30;99.90;;;;;;2615552;54;20944;-73
2021/12/18 03:47:31;;;;;;;21.97;13.37;;;11.40;99.90;;;;;;2615295;54;20483;-72
2021/12/18 03:49:57;;;;;;;23.77;13.63;;;11.60;99.90;;;;;;2615608;54;20927;-73
2021/12/18 03:52:23;;;;;;;22.77;14.30;;;11.60;99.90;;;;;;2615015;54;20443;-75
2021/12/18 03:54:49;;;;;;;27.97;14.37;;;11.60;99.90;;;;;;2613880;54;20442;-73
2021/12/18 03:57:15;;;;;;;26.03;13.83;;;11.60;99.90;;;;;;2614594;54;20442;-74
2021/12/18 03:59:41;;;;;;;27.00;15.03;;;11.60;99.90;;;;;;2615736;39;20801;-73
2021/12/18 04:02:07;;;;;;;21.03;14.20;;;11.40;99.90;;;;;;2614505;54;20398;-73
2021/12/18 04:04:32;;;;;;;22.20;15.10;;;11.20;99.90;;;;;;2614033;54;20554;-74
2021/12/18 04:07:01;;;;;;;22.70;13.20;;;11.30;99.90;;;;;;2614564;54;20242;-73
2021/12/18 04:09:31;;;;;;;24.10;13.90;;;11.50;99.90;;;;;;2613911;47;20179;-74
2021/12/18 04:11:57;;;;;;;24.30;13.60;;;11.50;99.90;;;;;;2615352;39;20816;-74
2021/12/18 04:14:24;;;;;;;26.80;14.67;;;11.50;99.90;;;;;;2615229;54;20931;-74
2021/12/18 04:16:50;;;;;;;20.70;11.97;;;11.40;99.90;;;;;;2614270;54;20448;-73
2021/12/18 04:19:16;;;;;;;23.37;13.47;;;11.20;99.90;;;;;;2614717;54;20971;-73
2021/12/18 04:21:42;;;;;;;27.80;13.17;;;11.00;99.90;;;;;;2614828;54;20418;-74
2021/12/18 04:24:08;;;;;;;19.23;11.50;;;11.20;99.90;;;;;;2613442;54;20939;-73
2021/12/18 04:26:35;;;;;;;22.60;11.60;;;11.30;99.90;;;;;;2615328;54;20423;-74
2021/12/18 04:29:01;;;;;;;17.37;10.83;;;11.30;99.90;;;;;;2614301;47;20433;-73
2021/12/18 04:31:28;;;;;;;24.23;13.53;;;11.50;99.90;;;;;;2615166;54;20939;-73
2021/12/18 04:33:54;;;;;;;24.13;12.43;;;11.30;99.90;;;;;;2614262;47;20454;-74
2021/12/18 04:36:21;;;;;;;21.00;12.07;;;11.30;99.90;;;;;;2614309;54;20419;-74
2021/12/18 04:38:47;;;;;;;24.80;12.13;;;11.40;99.90;;;;;;2614338;47;20458;-74
2021/12/18 04:41:20;;;;;;;22.50;13.60;;;11.30;99.90;;;;;;2614029;47;20419;-73
2021/12/18 04:43:47;;;;;;;24.20;12.73;;;11.40;99.90;;;;;;2615581;39;20882;-74
2021/12/18 04:46:13;;;;;;;21.97;12.93;;;11.70;99.90;;;;;;2615653;54;20615;-75
2021/12/18 04:48:39;;;;;;;22.50;13.00;;;11.50;99.90;;;;;;2615610;31;20863;-74
2021/12/18 04:51:05;;;;;;;20.07;11.37;;;11.60;99.90;;;;;;2615864;54;20423;-75
2021/12/18 04:53:31;;;;;;;23.90;13.80;;;11.30;99.90;;;;;;2615345;54;20411;-73
2021/12/18 04:55:57;;;;;;;21.07;12.27;;;11.40;99.90;;;;;;2615065;54;20562;-73
2021/12/18 04:58:24;;;;;;;21.77;12.73;;;11.50;99.90;;;;;;2616451;31;20615;-73
2021/12/18 05:00:50;;;;;;;22.43;12.50;;;11.60;99.90;;;;;;2615496;39;20814;-75
2021/12/18 05:03:17;;;;;;;23.50;12.50;;;11.50;99.90;;;;;;2615818;39;21116;-74
2021/12/18 05:05:45;;;;;;;23.37;13.73;;;10.90;99.90;;;;;;2614727;54;20514;-75
2021/12/18 05:08:11;;;;;;;27.80;14.00;;;10.40;99.90;;;;;;2614358;54;20417;-73
2021/12/18 05:10:37;;;;;;;25.50;13.33;;;9.80;99.90;;;;;;2616240;54;20434;-73
2021/12/18 05:13:03;;;;;;;28.07;13.87;;;9.30;99.90;;;;;;2615397;54;20213;-74
2021/12/18 05:15:29;;;;;;;25.83;14.27;;;9.00;99.90;;;;;;2614684;47;20439;-74
2021/12/18 05:17:55;;;;;;;23.07;13.47;;;9.30;99.90;;;;;;2615098;54;20396;-73
2021/12/18 05:20:21;;;;;;;24.57;12.70;;;9.50;99.90;;;;;;2614670;54;20419;-73
2021/12/18 05:22:47;;;;;;;22.27;12.93;;;9.90;99.90;;;;;;2614034;54;20143;-74
2021/12/18 05:25:13;;;;;;;23.20;13.40;;;10.30;99.90;;;;;;2614948;54;20162;-73
2021/12/18 05:27:39;;;;;;;28.43;14.73;;;10.00;99.90;;;;;;2614964;54;20185;-74
2021/12/18 05:30:08;;;;;;;32.63;14.90;;;10.20;99.90;;;;;;2616129;39;20498;-73
2021/12/18 05:32:34;;;;;;;23.63;13.63;;;10.40;99.90;;;;;;2614015;47;20442;-72
2021/12/18 05:35:02;;;;;;;26.67;14.60;;;10.70;99.90;;;;;;2612624;54;20515;-74
2021/12/18 05:37:43;;;;;;;32.33;15.57;;;10.90;99.90;;;;;;2615624;54;20419;-74
2021/12/18 05:40:11;;;;;;;30.73;14.70;;;11.20;99.90;;;;;;2615318;47;20986;-72
2021/12/18 05:42:37;;;;;;;29.83;15.87;;;11.10;99.90;;;;;;2614657;54;20431;-73
2021/12/18 05:45:05;;;;;;;36.00;14.90;;;10.90;99.90;;;;;;2614988;54;22207;-74
2021/12/18 05:47:31;;;;;;;32.40;15.60;;;10.60;99.90;;;;;;2615435;54;20427;-73
2021/12/18 05:49:57;;;;;;;25.10;14.90;;;10.10;99.90;;;;;;2615295;54;20983;-72
2021/12/18 05:52:24;;;;;;;26.80;13.57;;;9.20;99.90;;;;;;2613350;54;20418;-73
2021/12/18 05:54:50;;;;;;;24.60;14.30;;;9.30;99.90;;;;;;2614846;54;20433;-74
2021/12/18 05:57:16;;;;;;;27.03;13.47;;;9.60;99.90;;;;;;2615043;54;20399;-75
2021/12/18 05:59:43;;;;;;;24.80;13.10;;;9.30;99.90;;;;;;2615663;39;20833;-74
2021/12/18 06:02:09;;;;;;;27.70;13.80;;;8.90;99.90;;;;;;2614165;54;20154;-72
2021/12/18 06:04:34;;;;;;;27.13;14.70;;;8.90;99.90;;;;;;2615601;54;20990;-74
2021/12/18 06:07:05;;;;;;;26.83;15.27;;;8.90;99.90;;;;;;2614406;54;20423;-74
2021/12/18 06:09:34;;;;;;;28.97;14.50;;;8.90;99.90;;;;;;2614896;54;20178;-73
2021/12/18 06:12:00;;;;;;;28.10;15.33;;;9.20;99.90;;;;;;2614691;54;20478;-74
2021/12/18 06:14:27;;;;;;;26.87;14.20;;;9.70;99.90;;;;;;2615958;39;20838;-72
2021/12/18 06:16:53;;;;;;;25.43;13.90;;;9.90;99.90;;;;;;2614171;54;20411;-73
2021/12/18 06:19:19;;;;;;;29.80;15.90;;;9.60;99.90;;;;;;2615415;54;20454;-74
2021/12/18 06:21:45;;;;;;;24.07;12.67;;;9.60;99.90;;;;;;2615454;39;20939;-73
2021/12/18 06:24:11;;;;;;;34.57;15.60;;;9.60;99.90;;;;;;2614924;54;20530;-74
2021/12/18 06:26:37;;;;;;;26.13;13.90;;;9.30;99.90;;;;;;2615408;54;20421;-73
2021/12/18 06:29:03;;;;;;;26.67;14.67;;;9.50;99.90;;;;;;2615314;39;20477;-73
2021/12/18 06:31:28;;;;;;;30.37;14.27;;;9.40;99.90;;;;;;2615381;54;20669;-75
2021/12/18 06:33:54;;;;;;;25.53;12.80;;;9.00;99.90;;;;;;2613930;54;20423;-74
2021/12/18 06:36:21;;;;;;;20.90;13.33;;;8.90;99.90;;;;;;2615124;39;22471;-73
2021/12/18 06:38:47;;;;;;;32.33;15.07;;;8.70;99.90;;;;;;2614438;47;20178;-73
2021/12/18 06:41:13;;;;;;;21.57;13.33;;;8.80;99.90;;;;;;2613985;54;20419;-73
2021/12/18 06:43:39;;;;;;;22.23;12.47;;;8.80;99.90;;;;;;2615311;54;20147;-73
2021/12/18 06:46:06;;;;;;;27.17;14.23;;;9.40;99.90;;;;;;2614727;54;20480;-74
2021/12/18 06:48:33;;;;;;;25.80;12.17;;;9.20;99.90;;;;;;2614393;54;20740;-73
2021/12/18 06:50:59;;;;;;;25.67;13.93;;;9.20;99.90;;;;;;2614189;54;20783;-74
2021/12/18 06:53:25;;;;;;;27.37;12.83;;;9.80;99.90;;;;;;2615156;54;20429;-74
2021/12/18 06:55:51;;;;;;;28.63;14.17;;;10.30;99.90;;;;;;2614793;54;20445;-74
2021/12/18 06:58:17;;;;;;;28.80;13.90;;;10.70;99.90;;;;;;2615673;46;20162;-73
2021/12/18 07:00:43;;;;;;;25.00;15.43;;;10.80;99.90;;;;;;2615007;54;20719;-74
2021/12/18 07:03:11;;;;;;;22.53;12.43;;;10.70;99.90;;;;;;2614245;54;21332;-73
2021/12/18 07:05:36;;;;;;;26.43;13.23;;;10.30;99.90;;;;;;2614463;54;20424;-73
2021/12/18 07:08:02;;;;;;;31.57;14.77;;;10.30;99.90;;;;;;2614000;47;20882;-73
2021/12/18 07:10:31;;;;;;;24.87;13.77;;;9.50;99.90;;;;;;2614520;39;20593;-74
2021/12/18 07:12:57;;;;;;;27.77;13.03;;;9.70;99.90;;;;;;2615317;54;20431;-74
2021/12/18 07:15:23;;;;;;;21.27;12.60;;;9.80;99.90;;;;;;2614099;54;20422;-73
2021/12/18 07:17:49;;;;;;;21.93;12.97;;;10.30;99.90;;;;;;2614503;54;20446;-73
2021/12/18 07:20:15;;;;;;;25.97;14.67;;;10.70;99.90;;;;;;2615258;54;20466;-74
2021/12/18 07:22:42;;;;;;;27.23;13.60;;;11.00;99.90;;;;;;2614266;54;20514;-72
2021/12/18 07:25:09;;;;;;;21.10;12.23;;;11.30;99.90;;;;;;2614647;54;20186;-74
2021/12/18 07:27:36;;;;;;;26.47;14.00;;;11.50;99.90;;;;;;2614976;54;21010;-74
2021/12/18 07:30:03;;;;;;;27.93;13.33;;;11.60;99.90;;;;;;2615092;54;20431;-77
2021/12/18 07:32:29;;;;;;;30.03;14.43;;;11.60;99.90;;;;;;2613641;54;20413;-76
2021/12/18 07:34:56;;;;;;;27.27;13.33;;;11.70;99.90;;;;;;2613201;47;20534;-74
2021/12/18 07:37:24;;;;;;;23.50;14.10;;;11.30;99.90;;;;;;2611905;47;20427;-74
2021/12/18 07:39:51;;;;;;;27.90;13.33;;;11.00;99.90;;;;;;2612421;54;20423;-74
2021/12/18 07:42:19;;;;;;;27.70;13.27;;;11.00;99.90;;;;;;2613114;47;20959;-73
2021/12/18 07:44:45;;;;;;;22.80;12.47;;;10.80;99.90;;;;;;2614568;54;20418;-73
2021/12/18 07:47:12;;;;;;;34.23;13.97;;;11.00;99.90;;;;;;2615147;54;20419;-74
2021/12/18 07:49:39;;;;;;;31.17;15.30;;;10.80;99.90;;;;;;2614132;54;20443;-73
2021/12/18 07:52:05;;;;;;;23.30;13.90;;;10.50;99.90;;;;;;2614696;54;20435;-74
2021/12/18 07:54:31;;;;;;;23.80;13.50;;;10.90;99.90;;;;;;2614611;54;20420;-73
2021/12/18 07:56:57;;;;;;;21.63;11.60;;;10.50;99.90;;;;;;2614379;54;21493;-74
2021/12/18 07:59:23;;;;;;;20.57;12.33;;;10.20;99.90;;;;;;2614008;39;20676;-72
2021/12/18 08:01:50;;;;;;;23.60;12.07;;;9.90;99.90;;;;;;2614920;54;20427;-73
2021/12/18 08:04:15;;;;;;;22.00;12.20;;;9.50;99.90;;;;;;2614559;54;20487;-74
2021/12/18 08:06:41;;;;;;;21.47;12.83;;;9.20;99.90;;;;;;2615486;39;20821;-72
2021/12/18 08:09:07;;;;;;;24.00;12.67;;;9.10;99.90;;;;;;2615069;54;20462;-73
2021/12/18 08:11:33;;;;;;;27.17;13.70;;;9.50;99.90;;;;;;2612725;54;20459;-74
2021/12/18 08:13:59;;;;;;;21.70;12.70;;;9.40;99.90;;;;;;2614465;54;20495;-73
2021/12/18 08:16:25;;;;;;;28.07;14.70;;;9.60;99.90;;;;;;2613000;54;20922;-72
2021/12/18 08:18:51;;;;;;;26.17;13.40;;;9.70;99.90;;;;;;2614656;39;20818;-76
2021/12/18 08:21:17;;;;;;;28.63;15.93;;;9.80;99.90;;;;;;2614355;47;20166;-73
2021/12/18 08:23:43;;;;;;;37.07;15.30;;;10.00;99.90;;;;;;2613887;54;20430;-75
2021/12/18 08:26:08;;;;;;;29.50;14.93;;;9.30;99.90;;;;;;2613023;47;20213;-73
2021/12/18 08:28:34;;;;;;;23.77;15.10;;;9.50;99.90;;;;;;2613480;47;20202;-74
2021/12/18 08:31:00;;;;;;;28.03;14.80;;;9.80;99.90;;;;;;2611313;54;20448;-73
2021/12/18 08:33:27;;;;;;;26.20;14.60;;;10.10;99.90;;;;;;2613578;54;20415;-74
2021/12/18 08:35:53;;;;;;;26.03;14.30;;;10.40;99.90;;;;;;2614509;47;20424;-73
2021/12/18 08:38:20;;;;;;;24.57;14.50;;;10.80;99.90;;;;;;2610993;54;20431;-73
2021/12/18 08:40:46;;;;;;;30.10;17.40;;;11.10;99.90;;;;;;2614793;54;20450;-73
2021/12/18 08:43:12;;;;;;;34.13;16.03;;;11.30;99.90;;;;;;2615271;54;20423;-74
2021/12/18 08:45:38;;;;;;;37.83;17.90;;;11.10;99.90;;;;;;2616348;39;20776;-73
2021/12/18 08:48:05;;;;;;;38.20;19.10;;;10.40;99.90;;;;;;2614158;47;20427;-74
2021/12/18 08:50:33;;;;;;;36.50;17.03;;;10.60;99.90;;;;;;2615727;39;20802;-73
2021/12/18 08:52:59;;;;;;;37.37;18.37;;;10.70;99.90;;;;;;2613927;54;20431;-74
2021/12/18 08:55:26;;;;;;;39.27;16.93;;;10.50;99.90;;;;;;2615298;47;20431;-74
2021/12/18 08:57:52;;;;;;;36.60;16.40;;;10.70;99.90;;;;;;2614342;51;20430;-74
2021/12/18 09:00:21;;;;;;;32.80;19.53;;;11.00;99.90;;;;;;2615426;39;20813;-74
2021/12/18 09:02:50;;;;;;;34.17;18.10;;;11.20;99.90;;;;;;2614472;54;20419;-74
2021/12/18 09:05:17;;;;;;;28.03;14.40;;;11.20;99.90;;;;;;2615182;54;20435;-73
2021/12/18 09:07:44;;;;;;;21.83;13.10;;;11.00;99.90;;;;;;2614192;47;20462;-75
2021/12/18 09:10:14;;;;;;;31.33;14.80;;;10.60;99.90;;;;;;2615510;54;20562;-74
2021/12/18 09:12:39;;;;;;;25.90;13.30;;;10.50;99.90;;;;;;2615403;54;20466;-73
2021/12/18 09:15:06;;;;;;;25.17;13.80;;;10.20;99.90;;;;;;2614625;47;20427;-75
2021/12/18 09:17:32;;;;;;;25.93;12.60;;;10.10;99.90;;;;;;2614517;54;20470;-75
2021/12/18 09:19:58;;;;;;;25.63;12.73;;;9.70;99.90;;;;;;2614534;54;20423;-74
2021/12/18 09:22:24;;;;;;;24.47;11.97;;;9.50;99.90;;;;;;2614029;54;20426;-74
2021/12/18 09:24:50;;;;;;;22.30;12.03;;;9.70;99.90;;;;;;2613969;54;20151;-75
2021/12/18 09:27:17;;;;;;;21.80;11.27;;;10.00;99.90;;;;;;2614115;54;20169;-75
2021/12/18 09:29:43;;;;;;;28.20;12.17;;;10.00;99.90;;;;;;2615591;54;20439;-74
2021/12/18 09:32:09;;;;;;;23.03;12.80;;;10.20;99.90;;;;;;2615543;54;20450;-72
2021/12/18 09:34:35;;;;;;;30.97;13.67;;;10.00;99.90;;;;;;2614587;54;20419;-74
2021/12/18 09:37:02;;;;;;;37.67;13.30;;;9.80;99.90;;;;;;2614692;47;21011;-74
2021/12/18 09:39:28;;;;;;;32.83;13.63;;;10.00;99.90;;;;;;2615583;54;20424;-75
2021/12/18 09:41:55;;;;;;;28.33;14.00;;;9.90;99.90;;;;;;2614106;39;20818;-75
2021/12/18 09:44:32;;;;;;;28.47;12.10;;;10.00;99.90;;;;;;2612766;54;20423;-74
2021/12/18 09:46:59;;;;;;;26.10;12.53;;;10.20;99.90;;;;;;2614226;47;20435;-73
2021/12/18 09:49:25;;;;;;;30.10;13.37;;;10.00;99.90;;;;;;2615257;54;20955;-74
2021/12/18 09:51:52;;;;;;;24.47;12.30;;;10.30;99.90;;;;;;2613482;46;20530;-74
2021/12/18 09:54:19;;;;;;;26.40;14.60;;;10.50;99.90;;;;;;2615111;54;20931;-74
2021/12/18 09:56:45;;;;;;;30.73;14.17;;;10.10;99.90;;;;;;2615207;54;20463;-75
2021/12/18 09:59:12;;;;;;;39.10;16.10;;;9.80;99.90;;;;;;2613988;54;20415;-73
2021/12/18 10:01:38;;;;;;;35.10;14.33;;;10.00;99.90;;;;;;2614368;54;20562;-74
2021/12/18 10:04:05;;;;;;;33.20;15.27;;;10.20;99.90;;;;;;2612511;54;20956;-73
2021/12/18 10:06:44;;;;;;;30.33;17.03;;;10.40;99.90;;;;;;2614541;47;20420;-74
2021/12/18 10:09:12;;;;;;;31.90;15.47;;;10.40;99.90;;;;;;2614516;54;20986;-74
2021/12/18 10:11:50;;;;;;;31.17;17.40;;;10.40;99.90;;;;;;2614862;54;20427;-73
2021/12/18 10:14:17;;;;;;;36.93;17.27;;;10.60;99.90;;;;;;2613842;46;20419;-73
2021/12/18 10:16:45;;;;;;;39.97;20.60;;;10.30;99.90;;;;;;2615333;54;20408;-74
2021/12/18 10:19:28;;;;;;;33.50;17.60;;;10.20;99.90;;;;;;2613269;46;20453;-74
2021/12/18 10:22:05;;;;;;;37.83;16.93;;;10.50;99.90;;;;;;2613990;54;20423;-76
2021/12/18 10:24:33;;;;;;;35.70;17.27;;;10.70;99.90;;;;;;2613686;54;20419;-74
2021/12/18 10:27:19;;;;;;;36.43;16.87;;;11.00;99.90;;;;;;2614245;54;20555;-74
2021/12/18 10:29:48;;;;;;;38.70;17.20;;;11.00;99.90;;;;;;2612266;54;20423;-73
2021/12/18 10:32:15;;;;;;;41.50;17.83;;;11.00;99.90;;;;;;2610579;54;20413;-74
2021/12/18 10:34:43;;;;;;;35.97;17.97;;;11.10;99.90;;;;;;2614613;54;20489;-74
2021/12/18 10:37:16;;;;;;;46.00;19.43;;;10.80;99.90;;;;;;2614300;54;20415;-73
2021/12/18 10:39:50;;;;;;;35.67;17.93;;;10.90;99.90;;;;;;2614192;54;21026;-73
2021/12/18 10:42:27;;;;;;;35.57;16.10;;;10.90;99.90;;;;;;2614759;54;20391;-73
2021/12/18 10:44:58;;;;;;;38.13;16.70;;;11.20;99.90;;;;;;2614464;47;20419;-74
2021/12/18 10:47:24;;;;;;;33.33;17.47;;;11.30;99.90;;;;;;2612928;54;20415;-74
2021/12/18 10:49:50;;;;;;;43.40;19.97;;;11.30;99.90;;;;;;2611470;54;20437;-74
2021/12/18 10:52:17;;;;;;;45.10;18.40;;;11.30;99.90;;;;;;2614415;39;21185;-74
2021/12/18 10:54:43;;;;;;;38.70;19.50;;;11.10;99.90;;;;;;2614448;54;20948;-75
2021/12/18 10:57:21;;;;;;;55.13;28.30;;;10.90;99.90;;;;;;2615172;54;20430;-73
2021/12/18 10:59:51;;;;;;;41.43;22.20;;;10.00;99.90;;;;;;2614584;54;20197;-74
2021/12/18 11:02:19;;;;;;;37.23;18.83;;;10.50;99.90;;;;;;2613261;54;21313;-76
2021/12/18 11:04:45;;;;;;;38.87;22.63;;;10.60;99.90;;;;;;2612653;47;20432;-75
2021/12/18 11:07:22;;;;;;;36.20;19.97;;;11.00;99.90;;;;;;2614771;54;20415;-75
2021/12/18 11:10:11;;;;;;;43.00;19.07;;;11.20;99.90;;;;;;2614171;54;20975;-73
2021/12/18 11:15:21;;;;;;;38.37;21.40;;;11.20;99.90;;;;;;2613842;47;20429;-72
2021/12/18 11:17:47;;;;;;;41.80;20.70;;;10.70;99.90;;;;;;2613856;54;20419;-76
2021/12/18 11:20:13;;;;;;;41.93;21.90;;;10.30;99.90;;;;;;2612517;47;20444;-76
2021/12/18 11:22:41;;;;;;;46.80;19.97;;;10.40;99.90;;;;;;2614858;54;20424;-72
2021/12/18 11:25:12;;;;;;;37.57;16.50;;;10.20;99.90;;;;;;2613477;54;20415;-74
2021/12/18 11:27:39;;;;;;;31.47;15.07;;;10.20;99.90;;;;;;2614054;39;20993;-73
2021/12/18 11:30:13;;;;;;;25.80;14.57;;;10.60;99.90;;;;;;2615442;39;21222;-74
2021/12/18 11:32:53;;;;;;;30.40;14.80;;;10.70;99.90;;;;;;2614083;31;20889;-77
2021/12/18 11:35:23;;;;;;;35.67;15.50;;;10.10;99.90;;;;;;2612078;54;20411;-75
2021/12/18 11:38:08;;;;;;;32.93;16.23;;;10.50;99.90;;;;;;2614876;54;20426;-73
2021/12/18 11:40:37;;;;;;;33.53;16.83;;;10.40;99.90;;;;;;2614181;54;20404;-73
2021/12/18 11:43:29;;;;;;;37.47;17.40;;;9.90;99.90;;;;;;2614239;54;20479;-73
2021/12/18 11:45:57;;;;;;;25.10;13.10;;;9.20;99.90;;;;;;2614623;54;20424;-74
2021/12/18 11:48:23;;;;;;;30.07;13.87;;;9.10;99.90;;;;;;2614359;47;20440;-75
2021/12/18 11:50:49;;;;;;;23.73;13.43;;;9.60;99.90;;;;;;2613513;51;20415;-74
2021/12/18 11:53:18;;;;;;;18.43;12.17;;;10.00;99.90;;;;;;2614387;54;20432;-74
2021/12/18 11:55:50;;;;;;;26.80;14.40;;;10.10;99.90;;;;;;2614680;54;20467;-74
2021/12/18 11:58:20;;;;;;;22.77;13.40;;;9.90;99.90;;;;;;2613608;54;20427;-75
2021/12/18 12:00:49;;;;;;;20.87;14.03;;;9.70;99.90;;;;;;2615696;39;20825;-73
2021/12/18 12:03:43;;;;;;;31.17;16.27;;;10.00;99.90;;;;;;2614122;54;20419;-74
2021/12/18 12:06:38;;;;;;;27.90;14.57;;;10.10;99.90;;;;;;2614725;54;20422;-74
2021/12/18 12:11:58;;;;;;;34.80;15.40;;;9.80;99.90;;;;;;2614757;54;20486;-74
2021/12/18 12:14:32;;;;;;;27.00;14.67;;;9.70;99.90;;;;;;2614228;54;20403;-74
2021/12/18 12:17:03;;;;;;;28.10;15.30;;;9.40;99.90;;;;;;2613926;54;20450;-76
2021/12/18 12:19:35;;;;;;;28.43;14.10;;;9.20;99.90;;;;;;2613924;54;20446;-73
2021/12/18 12:22:04;;;;;;;30.87;14.43;;;9.30;99.90;;;;;;2612069;54;20428;-74
2021/12/18 12:24:55;;;;;;;29.50;16.73;;;9.40;99.90;;;;;;2611934;48;20980;-77
2021/12/18 12:27:34;;;;;;;31.63;16.37;;;9.60;99.90;;;;;;2611940;54;20420;-74
2021/12/18 12:30:05;;;;;;;20.77;13.30;;;9.90;99.90;;;;;;2612205;54;20527;-77
2021/12/18 12:32:31;;;;;;;25.10;13.67;;;10.40;99.90;;;;;;2611800;54;20436;-75
2021/12/18 12:34:59;;;;;;;27.07;12.50;;;10.60;99.90;;;;;;2613037;54;20518;-76
2021/12/18 12:37:34;;;;;;;22.77;10.87;;;10.40;99.90;;;;;;2612791;54;20441;-73
2021/12/18 12:40:08;;;;;;;21.27;10.83;;;10.40;99.90;;;;;;2614809;54;20509;-74
2021/12/18 12:42:35;;;;;;;27.57;12.43;;;10.20;99.90;;;;;;2614919;54;20425;-75
2021/12/18 12:45:07;;;;;;;20.47;12.07;;;10.00;99.90;;;;;;2614828;54;21097;-74
2021/12/18 12:47:33;;;;;;;24.20;12.87;;;9.90;99.90;;;;;;2614493;54;20427;-74
2021/12/18 12:50:20;;;;;;;25.50;12.07;;;9.80;99.90;;;;;;2615370;54;20510;-73
2021/12/18 12:52:51;;;;;;;22.30;11.07;;;9.80;99.90;;;;;;2613394;54;20478;-74
2021/12/18 12:55:19;;;;;;;20.83;11.93;;;9.90;99.90;;;;;;2614678;54;20434;-75
2021/12/18 12:58:24;;;;;;;24.30;12.80;;;10.00;99.90;;;;;;2614383;54;20991;-74
2021/12/18 13:01:03;;;;;;;25.27;11.30;;;10.10;99.90;;;;;;2613141;47;20418;-74
2021/12/18 13:03:46;;;;;;;18.27;11.50;;;10.20;99.90;;;;;;2611442;54;20435;-74
2021/12/18 13:06:16;;;;;;;16.90;11.73;;;10.00;99.90;;;;;;2614210;54;20419;-76
2021/12/18 13:08:44;;;;;;;17.53;10.73;;;10.30;99.90;;;;;;2613974;54;21001;-75
2021/12/18 13:11:24;;;;;;;15.63;8.50;;;9.90;99.90;;;;;;2614165;51;20435;-74
2021/12/18 13:13:53;;;;;;;12.80;8.23;;;9.90;99.90;;;;;;2614199;54;20431;-74
2021/12/18 13:16:22;;;;;;;14.87;10.40;;;9.90;99.90;;;;;;2614422;54;20423;-75
2021/12/18 13:18:55;;;;;;;13.80;10.30;;;9.50;99.90;;;;;;2614672;54;20456;-75
2021/12/18 13:21:30;;;;;;;14.37;9.17;;;9.20;99.90;;;;;;2612982;54;20453;-75
2021/12/18 13:24:00;;;;;;;16.23;10.30;;;9.10;99.90;;;;;;2614487;47;20434;-73
2021/12/18 13:26:30;;;;;;;14.67;9.53;;;9.20;99.90;;;;;;2615324;39;20807;-74